sensor_id;sensor_type;location;lat;lon;timestamp;temperature;humidity
51815;DHT22;37874;53.158;6.766;2023-11-21T00:01:18;19.50;70.10
51815;DHT22;37874;53.158;6.766;2023-11-21T00:03:43;19.50;70.20
51815;DHT22;37874;53.158;6.766;2023-11-21T00:06:09;19.40;70.00
51815;DHT22;37874;53.158;6.766;2023-11-21T00:08:35;19.50;70.10
51815;DHT22;37874;53.158;6.766;2023-11-21T00:11:01;19.50;70.10
51815;DHT22;37874;53.158;6.766;2023-11-21T00:13:31;19.50;70.00
51815;DHT22;37874;53.158;6.766;2023-11-21T00:15:57;19.80;70.20
51815;DHT22;37874;53.158;6.766;2023-11-21T00:18:22;19.50;70.00
51815;DHT22;37874;53.158;6.766;2023-11-21T00:20:48;19.50;70.00
51815;DHT22;37874;53.158;6.766;2023-11-21T00:23:13;19.60;70.00
51815;DHT22;37874;53.158;6.766;2023-11-21T00:25:39;20.30;70.30
51815;DHT22;37874;53.158;6.766;2023-11-21T00:28:05;19.50;69.90
51815;DHT22;37874;53.158;6.766;2023-11-21T00:30:31;19.50;69.90
51815;DHT22;37874;53.158;6.766;2023-11-21T00:32:57;20.20;70.20
51815;DHT22;37874;53.158;6.766;2023-11-21T00:35:22;19.50;69.80
51815;DHT22;37874;53.158;6.766;2023-11-21T00:37:48;19.60;69.80
51815;DHT22;37874;53.158;6.766;2023-11-21T00:40:15;19.60;69.70
51815;DHT22;37874;53.158;6.766;2023-11-21T00:42:41;19.60;69.70
51815;DHT22;37874;53.158;6.766;2023-11-21T00:45:07;20.30;70.10
51815;DHT22;37874;53.158;6.766;2023-11-21T00:47:33;19.60;69.70
51815;DHT22;37874;53.158;6.766;2023-11-21T00:49:59;19.60;69.60
51815;DHT22;37874;53.158;6.766;2023-11-21T00:52:24;20.20;69.90
51815;DHT22;37874;53.158;6.766;2023-11-21T00:54:50;19.50;69.60
51815;DHT22;37874;53.158;6.766;2023-11-21T00:57:16;19.60;69.50
51815;DHT22;37874;53.158;6.766;2023-11-21T00:59:41;19.80;70.10
51815;DHT22;37874;53.158;6.766;2023-11-21T01:02:07;20.10;69.70
51815;DHT22;37874;53.158;6.766;2023-11-21T01:04:36;20.00;69.60
51815;DHT22;37874;53.158;6.766;2023-11-21T01:07:01;19.60;69.40
51815;DHT22;37874;53.158;6.766;2023-11-21T01:45:50;19.70;69.00
51815;DHT22;37874;53.158;6.766;2023-11-21T01:48:16;19.60;69.00
51815;DHT22;37874;53.158;6.766;2023-11-21T01:50:42;19.60;68.90
51815;DHT22;37874;53.158;6.766;2023-11-21T01:53:10;19.70;68.90
51815;DHT22;37874;53.158;6.766;2023-11-21T01:55:37;19.70;68.90
51815;DHT22;37874;53.158;6.766;2023-11-21T01:58:04;19.70;68.90
51815;DHT22;37874;53.158;6.766;2023-11-21T02:00:30;19.60;68.70
51815;DHT22;37874;53.158;6.766;2023-11-21T02:02:57;19.60;68.70
51815;DHT22;37874;53.158;6.766;2023-11-21T02:05:24;19.70;68.80
51815;DHT22;37874;53.158;6.766;2023-11-21T02:07:50;19.70;68.80
51815;DHT22;37874;53.158;6.766;2023-11-21T02:10:18;19.70;68.80
51815;DHT22;37874;53.158;6.766;2023-11-21T02:12:49;19.70;68.80
51815;DHT22;37874;53.158;6.766;2023-11-21T02:15:18;19.70;68.80
51815;DHT22;37874;53.158;6.766;2023-11-21T02:17:48;19.70;68.90
51815;DHT22;37874;53.158;6.766;2023-11-21T02:20:17;19.70;68.80
51815;DHT22;37874;53.158;6.766;2023-11-21T02:22:50;19.70;68.80
51815;DHT22;37874;53.158;6.766;2023-11-21T02:25:33;19.70;68.80
51815;DHT22;37874;53.158;6.766;2023-11-21T02:28:01;19.70;68.70
51815;DHT22;37874;53.158;6.766;2023-11-21T02:30:28;19.70;68.60
51815;DHT22;37874;53.158;6.766;2023-11-21T02:32:54;19.70;68.60
51815;DHT22;37874;53.158;6.766;2023-11-21T02:35:21;19.80;69.20
51815;DHT22;37874;53.158;6.766;2023-11-21T02:37:47;19.70;68.50
51815;DHT22;37874;53.158;6.766;2023-11-21T02:40:13;19.80;68.50
51815;DHT22;37874;53.158;6.766;2023-11-21T02:42:44;19.80;68.50
51815;DHT22;37874;53.158;6.766;2023-11-21T02:45:10;19.70;68.50
51815;DHT22;37874;53.158;6.766;2023-11-21T02:47:38;19.70;68.40
51815;DHT22;37874;53.158;6.766;2023-11-21T02:50:05;19.80;68.40
51815;DHT22;37874;53.158;6.766;2023-11-21T02:52:34;19.80;68.50
51815;DHT22;37874;53.158;6.766;2023-11-21T02:55:01;19.80;68.40
51815;DHT22;37874;53.158;6.766;2023-11-21T02:57:27;19.80;68.40
51815;DHT22;37874;53.158;6.766;2023-11-21T02:59:53;19.80;68.40
51815;DHT22;37874;53.158;6.766;2023-11-21T03:02:20;19.80;68.30
51815;DHT22;37874;53.158;6.766;2023-11-21T03:04:46;19.80;68.40
51815;DHT22;37874;53.158;6.766;2023-11-21T03:07:15;19.80;68.40
51815;DHT22;37874;53.158;6.766;2023-11-21T03:09:41;19.80;68.40
51815;DHT22;37874;53.158;6.766;2023-11-21T03:12:09;19.70;68.40
51815;DHT22;37874;53.158;6.766;2023-11-21T03:14:35;19.80;68.40
51815;DHT22;37874;53.158;6.766;2023-11-21T03:17:04;19.80;68.90
51815;DHT22;37874;53.158;6.766;2023-11-21T03:19:31;19.80;68.30
51815;DHT22;37874;53.158;6.766;2023-11-21T03:21:56;19.80;68.20
51815;DHT22;37874;53.158;6.766;2023-11-21T03:24:22;19.80;68.20
51815;DHT22;37874;53.158;6.766;2023-11-21T03:26:48;19.80;68.20
51815;DHT22;37874;53.158;6.766;2023-11-21T03:29:14;19.80;68.20
51815;DHT22;37874;53.158;6.766;2023-11-21T03:31:40;19.80;68.20
51815;DHT22;37874;53.158;6.766;2023-11-21T03:34:09;19.30;68.00
51815;DHT22;37874;53.158;6.766;2023-11-21T03:36:35;19.80;68.70
51815;DHT22;37874;53.158;6.766;2023-11-21T03:39:02;19.80;68.20
51815;DHT22;37874;53.158;6.766;2023-11-21T03:41:28;19.80;68.20
51815;DHT22;37874;53.158;6.766;2023-11-21T03:43:54;19.80;68.20
51815;DHT22;37874;53.158;6.766;2023-11-21T03:46:20;19.80;68.20
51815;DHT22;37874;53.158;6.766;2023-11-21T03:48:46;19.80;68.20
51815;DHT22;37874;53.158;6.766;2023-11-21T03:51:14;19.80;68.20
51815;DHT22;37874;53.158;6.766;2023-11-21T03:53:40;19.80;68.10
51815;DHT22;37874;53.158;6.766;2023-11-21T03:56:06;19.80;68.20
51815;DHT22;37874;53.158;6.766;2023-11-21T03:58:32;19.80;68.10
51815;DHT22;37874;53.158;6.766;2023-11-21T04:00:58;19.80;68.10
51815;DHT22;37874;53.158;6.766;2023-11-21T04:03:24;19.80;68.10
51815;DHT22;37874;53.158;6.766;2023-11-21T04:05:50;19.80;68.00
51815;DHT22;37874;53.158;6.766;2023-11-21T04:08:16;19.80;68.00
51815;DHT22;37874;53.158;6.766;2023-11-21T04:10:42;19.80;67.90
51815;DHT22;37874;53.158;6.766;2023-11-21T04:13:09;19.80;67.90
51815;DHT22;37874;53.158;6.766;2023-11-21T04:15:36;19.80;68.00
51815;DHT22;37874;53.158;6.766;2023-11-21T04:18:02;19.90;68.00
51815;DHT22;37874;53.158;6.766;2023-11-21T04:20:28;19.80;67.90
51815;DHT22;37874;53.158;6.766;2023-11-21T04:22:54;19.80;67.90
51815;DHT22;37874;53.158;6.766;2023-11-21T04:25:20;19.80;67.90
51815;DHT22;37874;53.158;6.766;2023-11-21T04:27:49;19.80;67.90
51815;DHT22;37874;53.158;6.766;2023-11-21T04:30:15;19.80;67.90
51815;DHT22;37874;53.158;6.766;2023-11-21T04:32:41;19.90;67.90
51815;DHT22;37874;53.158;6.766;2023-11-21T04:35:09;19.80;67.80
51815;DHT22;37874;53.158;6.766;2023-11-21T04:37:36;19.80;67.90
51815;DHT22;37874;53.158;6.766;2023-11-21T04:40:02;19.80;67.80
51815;DHT22;37874;53.158;6.766;2023-11-21T04:42:34;19.90;67.80
51815;DHT22;37874;53.158;6.766;2023-11-21T04:45:00;19.90;67.80
51815;DHT22;37874;53.158;6.766;2023-11-21T04:47:27;19.90;67.80
51815;DHT22;37874;53.158;6.766;2023-11-21T04:49:52;19.90;67.80
51815;DHT22;37874;53.158;6.766;2023-11-21T04:52:18;19.90;67.80
51815;DHT22;37874;53.158;6.766;2023-11-21T04:54:51;19.90;67.80
51815;DHT22;37874;53.158;6.766;2023-11-21T04:57:20;19.90;67.80
51815;DHT22;37874;53.158;6.766;2023-11-21T04:59:46;19.90;67.80
51815;DHT22;37874;53.158;6.766;2023-11-21T05:02:15;19.90;67.80
51815;DHT22;37874;53.158;6.766;2023-11-21T05:04:42;19.80;67.80
51815;DHT22;37874;53.158;6.766;2023-11-21T05:07:08;19.90;67.80
51815;DHT22;37874;53.158;6.766;2023-11-21T05:09:34;19.90;67.80
51815;DHT22;37874;53.158;6.766;2023-11-21T05:12:02;19.90;67.80
51815;DHT22;37874;53.158;6.766;2023-11-21T05:14:29;19.90;67.80
51815;DHT22;37874;53.158;6.766;2023-11-21T05:16:57;19.90;67.80
51815;DHT22;37874;53.158;6.766;2023-11-21T05:19:24;19.90;67.80
51815;DHT22;37874;53.158;6.766;2023-11-21T05:21:50;19.90;67.80
51815;DHT22;37874;53.158;6.766;2023-11-21T05:24:16;19.90;67.70
51815;DHT22;37874;53.158;6.766;2023-11-21T05:26:42;19.90;67.70
51815;DHT22;37874;53.158;6.766;2023-11-21T05:29:08;19.90;67.60
51815;DHT22;37874;53.158;6.766;2023-11-21T05:31:35;19.90;67.60
51815;DHT22;37874;53.158;6.766;2023-11-21T05:34:01;19.90;67.60
51815;DHT22;37874;53.158;6.766;2023-11-21T05:36:27;19.90;67.60
51815;DHT22;37874;53.158;6.766;2023-11-21T05:38:53;19.90;67.60
51815;DHT22;37874;53.158;6.766;2023-11-21T05:41:19;19.90;67.50
51815;DHT22;37874;53.158;6.766;2023-11-21T05:43:45;19.90;67.50
51815;DHT22;37874;53.158;6.766;2023-11-21T05:46:11;19.90;67.50
51815;DHT22;37874;53.158;6.766;2023-11-21T05:48:39;19.90;67.50
51815;DHT22;37874;53.158;6.766;2023-11-21T05:51:06;19.80;67.50
51815;DHT22;37874;53.158;6.766;2023-11-21T05:53:34;19.90;67.50
51815;DHT22;37874;53.158;6.766;2023-11-21T05:56:00;19.90;67.60
51815;DHT22;37874;53.158;6.766;2023-11-21T05:58:26;19.90;67.50
51815;DHT22;37874;53.158;6.766;2023-11-21T06:00:51;19.90;67.60
51815;DHT22;37874;53.158;6.766;2023-11-21T06:03:17;19.90;67.60
51815;DHT22;37874;53.158;6.766;2023-11-21T06:05:43;19.90;67.50
51815;DHT22;37874;53.158;6.766;2023-11-21T06:08:09;19.90;67.50
51815;DHT22;37874;53.158;6.766;2023-11-21T06:10:36;19.90;67.50
51815;DHT22;37874;53.158;6.766;2023-11-21T06:13:02;19.90;67.50
51815;DHT22;37874;53.158;6.766;2023-11-21T06:15:29;19.90;67.40
51815;DHT22;37874;53.158;6.766;2023-11-21T06:17:55;19.90;67.40
51815;DHT22;37874;53.158;6.766;2023-11-21T06:20:21;19.90;67.40
51815;DHT22;37874;53.158;6.766;2023-11-21T06:22:49;19.90;67.30
51815;DHT22;37874;53.158;6.766;2023-11-21T06:25:18;20.00;67.30
51815;DHT22;37874;53.158;6.766;2023-11-21T06:27:45;20.00;67.40
51815;DHT22;37874;53.158;6.766;2023-11-21T06:30:12;20.00;67.30
51815;DHT22;37874;53.158;6.766;2023-11-21T06:32:39;19.90;67.30
51815;DHT22;37874;53.158;6.766;2023-11-21T06:35:06;20.00;67.40
51815;DHT22;37874;53.158;6.766;2023-11-21T06:37:32;19.90;67.30
51815;DHT22;37874;53.158;6.766;2023-11-21T06:39:59;20.00;67.30
51815;DHT22;37874;53.158;6.766;2023-11-21T06:42:26;20.00;67.30
51815;DHT22;37874;53.158;6.766;2023-11-21T06:44:52;20.00;67.30
51815;DHT22;37874;53.158;6.766;2023-11-21T06:47:20;19.90;67.20
51815;DHT22;37874;53.158;6.766;2023-11-21T06:49:46;20.00;67.30
51815;DHT22;37874;53.158;6.766;2023-11-21T06:52:15;20.00;67.30
51815;DHT22;37874;53.158;6.766;2023-11-21T06:54:41;20.00;67.30
51815;DHT22;37874;53.158;6.766;2023-11-21T06:57:07;19.90;67.30
51815;DHT22;37874;53.158;6.766;2023-11-21T06:59:33;20.00;67.20
51815;DHT22;37874;53.158;6.766;2023-11-21T07:01:59;20.00;67.20
51815;DHT22;37874;53.158;6.766;2023-11-21T07:04:25;20.00;67.20
51815;DHT22;37874;53.158;6.766;2023-11-21T07:06:54;20.60;67.50
51815;DHT22;37874;53.158;6.766;2023-11-21T07:09:20;20.00;67.10
51815;DHT22;37874;53.158;6.766;2023-11-21T07:11:52;20.00;67.10
51815;DHT22;37874;53.158;6.766;2023-11-21T07:14:17;20.00;67.10
51815;DHT22;37874;53.158;6.766;2023-11-21T07:16:45;20.00;67.10
51815;DHT22;37874;53.158;6.766;2023-11-21T07:19:11;20.00;67.10
51815;DHT22;37874;53.158;6.766;2023-11-21T07:21:38;20.00;67.60
51815;DHT22;37874;53.158;6.766;2023-11-21T07:24:08;20.00;67.00
51815;DHT22;37874;53.158;6.766;2023-11-21T07:26:34;20.00;67.00
51815;DHT22;37874;53.158;6.766;2023-11-21T07:29:02;20.10;67.00
51815;DHT22;37874;53.158;6.766;2023-11-21T07:31:28;20.00;66.90
51815;DHT22;37874;53.158;6.766;2023-11-21T07:33:55;20.00;66.90
51815;DHT22;37874;53.158;6.766;2023-11-21T07:36:26;19.80;66.80
51815;DHT22;37874;53.158;6.766;2023-11-21T07:38:53;20.10;66.90
51815;DHT22;37874;53.158;6.766;2023-11-21T07:41:19;20.10;67.00
51815;DHT22;37874;53.158;6.766;2023-11-21T07:43:49;20.00;66.90
51815;DHT22;37874;53.158;6.766;2023-11-21T07:46:16;20.40;67.20
51815;DHT22;37874;53.158;6.766;2023-11-21T07:48:43;20.10;67.00
51815;DHT22;37874;53.158;6.766;2023-11-21T07:51:12;20.10;67.00
51815;DHT22;37874;53.158;6.766;2023-11-21T07:53:39;20.10;66.90
51815;DHT22;37874;53.158;6.766;2023-11-21T07:56:09;20.10;67.00
51815;DHT22;37874;53.158;6.766;2023-11-21T07:58:38;20.10;67.00
51815;DHT22;37874;53.158;6.766;2023-11-21T08:01:04;20.10;67.00
51815;DHT22;37874;53.158;6.766;2023-11-21T08:03:31;20.10;67.00
51815;DHT22;37874;53.158;6.766;2023-11-21T08:05:58;20.10;67.00
51815;DHT22;37874;53.158;6.766;2023-11-21T08:08:24;20.00;66.90
51815;DHT22;37874;53.158;6.766;2023-11-21T08:10:50;20.10;66.90
51815;DHT22;37874;53.158;6.766;2023-11-21T08:13:25;20.20;66.90
51815;DHT22;37874;53.158;6.766;2023-11-21T08:15:55;20.10;66.80
51815;DHT22;37874;53.158;6.766;2023-11-21T08:18:22;20.20;66.90
51815;DHT22;37874;53.158;6.766;2023-11-21T08:20:48;20.20;66.90
51815;DHT22;37874;53.158;6.766;2023-11-21T08:23:17;20.20;66.90
51815;DHT22;37874;53.158;6.766;2023-11-21T08:25:44;20.10;66.90
51815;DHT22;37874;53.158;6.766;2023-11-21T08:28:10;20.20;66.90
51815;DHT22;37874;53.158;6.766;2023-11-21T08:30:39;20.20;67.00
51815;DHT22;37874;53.158;6.766;2023-11-21T08:33:07;20.10;66.90
51815;DHT22;37874;53.158;6.766;2023-11-21T08:35:34;20.20;66.90
51815;DHT22;37874;53.158;6.766;2023-11-21T08:38:00;20.10;66.80
51815;DHT22;37874;53.158;6.766;2023-11-21T08:40:26;20.20;67.00
51815;DHT22;37874;53.158;6.766;2023-11-21T08:42:53;20.10;66.90
51815;DHT22;37874;53.158;6.766;2023-11-21T08:45:19;20.10;66.90
51815;DHT22;37874;53.158;6.766;2023-11-21T08:47:45;20.10;66.90
51815;DHT22;37874;53.158;6.766;2023-11-21T08:50:11;20.10;67.00
51815;DHT22;37874;53.158;6.766;2023-11-21T08:52:38;20.10;67.10
51815;DHT22;37874;53.158;6.766;2023-11-21T08:55:05;20.10;67.10
51815;DHT22;37874;53.158;6.766;2023-11-21T08:57:36;20.10;67.10
51815;DHT22;37874;53.158;6.766;2023-11-21T09:00:06;20.00;67.10
51815;DHT22;37874;53.158;6.766;2023-11-21T09:02:38;20.00;67.20
51815;DHT22;37874;53.158;6.766;2023-11-21T09:05:05;20.00;67.20
51815;DHT22;37874;53.158;6.766;2023-11-21T09:07:31;20.00;67.20
51815;DHT22;37874;53.158;6.766;2023-11-21T09:09:57;20.00;67.20
51815;DHT22;37874;53.158;6.766;2023-11-21T09:12:23;20.00;67.20
51815;DHT22;37874;53.158;6.766;2023-11-21T09:14:51;20.00;67.20
51815;DHT22;37874;53.158;6.766;2023-11-21T09:17:17;20.00;67.20
51815;DHT22;37874;53.158;6.766;2023-11-21T09:19:46;20.00;67.40
51815;DHT22;37874;53.158;6.766;2023-11-21T09:22:17;20.00;67.40
51815;DHT22;37874;53.158;6.766;2023-11-21T09:24:46;20.10;67.10
51815;DHT22;37874;53.158;6.766;2023-11-21T09:27:15;20.00;67.00
51815;DHT22;37874;53.158;6.766;2023-11-21T09:29:41;20.00;66.90
51815;DHT22;37874;53.158;6.766;2023-11-21T09:32:07;20.00;66.90
51815;DHT22;37874;53.158;6.766;2023-11-21T09:34:34;20.00;66.90
51815;DHT22;37874;53.158;6.766;2023-11-21T09:37:07;20.00;66.90
51815;DHT22;37874;53.158;6.766;2023-11-21T09:39:34;20.00;67.00
51815;DHT22;37874;53.158;6.766;2023-11-21T09:42:25;20.00;67.10
51815;DHT22;37874;53.158;6.766;2023-11-21T09:47:27;20.00;67.10
51815;DHT22;37874;53.158;6.766;2023-11-21T09:49:54;20.00;67.10
51815;DHT22;37874;53.158;6.766;2023-11-21T09:52:27;20.00;67.10
51815;DHT22;37874;53.158;6.766;2023-11-21T09:54:53;20.00;67.20
51815;DHT22;37874;53.158;6.766;2023-11-21T09:57:20;20.00;67.10
51815;DHT22;37874;53.158;6.766;2023-11-21T09:59:54;20.00;67.10
51815;DHT22;37874;53.158;6.766;2023-11-21T10:02:27;20.00;67.10
51815;DHT22;37874;53.158;6.766;2023-11-21T10:04:56;20.10;67.30
51815;DHT22;37874;53.158;6.766;2023-11-21T10:07:23;20.10;67.40
51815;DHT22;37874;53.158;6.766;2023-11-21T10:09:51;20.10;67.50
51815;DHT22;37874;53.158;6.766;2023-11-21T10:12:17;20.10;67.60
51815;DHT22;37874;53.158;6.766;2023-11-21T10:14:43;20.20;67.70
51815;DHT22;37874;53.158;6.766;2023-11-21T10:17:17;20.20;67.80
51815;DHT22;37874;53.158;6.766;2023-11-21T10:19:47;20.20;67.80
51815;DHT22;37874;53.158;6.766;2023-11-21T10:22:15;20.20;67.60
51815;DHT22;37874;53.158;6.766;2023-11-21T10:24:41;20.30;67.60
51815;DHT22;37874;53.158;6.766;2023-11-21T10:27:09;20.30;67.40
51815;DHT22;37874;53.158;6.766;2023-11-21T10:29:35;20.30;67.30
51815;DHT22;37874;53.158;6.766;2023-11-21T10:32:05;20.30;67.30
51815;DHT22;37874;53.158;6.766;2023-11-21T10:34:31;20.30;67.20
51815;DHT22;37874;53.158;6.766;2023-11-21T10:36:57;20.30;67.10
51815;DHT22;37874;53.158;6.766;2023-11-21T10:39:24;20.30;67.10
51815;DHT22;37874;53.158;6.766;2023-11-21T10:41:56;20.30;67.10
51815;DHT22;37874;53.158;6.766;2023-11-21T10:44:22;20.30;67.10
51815;DHT22;37874;53.158;6.766;2023-11-21T10:46:50;20.30;66.80
51815;DHT22;37874;53.158;6.766;2023-11-21T10:49:22;20.30;66.80
51815;DHT22;37874;53.158;6.766;2023-11-21T10:51:51;20.30;66.70
51815;DHT22;37874;53.158;6.766;2023-11-21T10:54:20;20.30;66.70
51815;DHT22;37874;53.158;6.766;2023-11-21T10:56:49;20.40;66.70
51815;DHT22;37874;53.158;6.766;2023-11-21T10:59:19;20.40;66.60
51815;DHT22;37874;53.158;6.766;2023-11-21T11:01:51;20.40;66.60
51815;DHT22;37874;53.158;6.766;2023-11-21T11:04:19;20.40;66.50
51815;DHT22;37874;53.158;6.766;2023-11-21T11:07:05;20.40;66.40
51815;DHT22;37874;53.158;6.766;2023-11-21T11:09:35;20.40;66.30
51815;DHT22;37874;53.158;6.766;2023-11-21T11:12:03;20.40;66.30
51815;DHT22;37874;53.158;6.766;2023-11-21T11:14:36;20.40;66.20
51815;DHT22;37874;53.158;6.766;2023-11-21T11:17:02;20.40;66.30
51815;DHT22;37874;53.158;6.766;2023-11-21T11:19:31;20.40;66.10
51815;DHT22;37874;53.158;6.766;2023-11-21T11:24:49;20.40;66.20
51815;DHT22;37874;53.158;6.766;2023-11-21T11:27:52;20.40;66.20
51815;DHT22;37874;53.158;6.766;2023-11-21T11:30:43;20.40;66.10
51815;DHT22;37874;53.158;6.766;2023-11-21T11:33:15;20.40;66.10
51815;DHT22;37874;53.158;6.766;2023-11-21T11:36:02;20.40;66.00
51815;DHT22;37874;53.158;6.766;2023-11-21T11:38:33;20.40;66.00
51815;DHT22;37874;53.158;6.766;2023-11-21T11:41:03;20.40;66.00
51815;DHT22;37874;53.158;6.766;2023-11-21T11:43:32;20.40;66.00
51815;DHT22;37874;53.158;6.766;2023-11-21T11:45:59;20.40;65.80
51815;DHT22;37874;53.158;6.766;2023-11-21T11:48:25;20.50;65.80
51815;DHT22;37874;53.158;6.766;2023-11-21T11:51:02;20.50;65.70
51815;DHT22;37874;53.158;6.766;2023-11-21T11:53:41;20.50;65.70
51815;DHT22;37874;53.158;6.766;2023-11-21T11:56:31;20.50;65.60
51815;DHT22;37874;53.158;6.766;2023-11-21T11:59:04;20.60;65.40
51815;DHT22;37874;53.158;6.766;2023-11-21T12:01:35;20.60;65.40
51815;DHT22;37874;53.158;6.766;2023-11-21T12:07:03;20.60;65.30
51815;DHT22;37874;53.158;6.766;2023-11-21T12:09:36;20.70;65.20
51815;DHT22;37874;53.158;6.766;2023-11-21T12:12:08;20.70;64.90
51815;DHT22;37874;53.158;6.766;2023-11-21T12:14:36;20.70;64.80
51815;DHT22;37874;53.158;6.766;2023-11-21T12:17:02;20.70;64.70
51815;DHT22;37874;53.158;6.766;2023-11-21T12:19:30;20.70;64.80
51815;DHT22;37874;53.158;6.766;2023-11-21T12:21:56;20.70;64.70
51815;DHT22;37874;53.158;6.766;2023-11-21T12:24:22;20.80;64.90
51815;DHT22;37874;53.158;6.766;2023-11-21T12:26:49;20.90;64.50
51815;DHT22;37874;53.158;6.766;2023-11-21T12:29:15;21.00;64.30
51815;DHT22;37874;53.158;6.766;2023-11-21T12:31:42;21.00;63.90
51815;DHT22;37874;53.158;6.766;2023-11-21T12:34:08;21.00;63.80
51815;DHT22;37874;53.158;6.766;2023-11-21T12:36:37;21.10;63.90
51815;DHT22;37874;53.158;6.766;2023-11-21T12:39:03;21.00;63.80
51815;DHT22;37874;53.158;6.766;2023-11-21T12:41:29;21.00;64.00
51815;DHT22;37874;53.158;6.766;2023-11-21T12:43:56;21.00;64.00
51815;DHT22;37874;53.158;6.766;2023-11-21T12:46:23;20.90;64.10
51815;DHT22;37874;53.158;6.766;2023-11-21T12:48:51;20.90;64.20
51815;DHT22;37874;53.158;6.766;2023-11-21T12:51:17;21.00;64.00
51815;DHT22;37874;53.158;6.766;2023-11-21T12:53:44;21.00;64.00
51815;DHT22;37874;53.158;6.766;2023-11-21T12:56:11;21.00;64.00
51815;DHT22;37874;53.158;6.766;2023-11-21T12:58:38;21.00;63.80
51815;DHT22;37874;53.158;6.766;2023-11-21T13:01:06;21.00;63.70
51815;DHT22;37874;53.158;6.766;2023-11-21T13:03:38;21.10;64.00
51815;DHT22;37874;53.158;6.766;2023-11-21T13:06:05;20.90;64.70
51815;DHT22;37874;53.158;6.766;2023-11-21T13:08:33;20.80;64.00
51815;DHT22;37874;53.158;6.766;2023-11-21T13:10:59;20.80;64.10
51815;DHT22;37874;53.158;6.766;2023-11-21T13:13:28;20.80;64.20
51815;DHT22;37874;53.158;6.766;2023-11-21T13:15:56;20.70;64.30
51815;DHT22;37874;53.158;6.766;2023-11-21T13:18:25;20.70;64.40
51815;DHT22;37874;53.158;6.766;2023-11-21T13:21:01;20.60;64.40
51815;DHT22;37874;53.158;6.766;2023-11-21T13:23:41;20.60;65.20
51815;DHT22;37874;53.158;6.766;2023-11-21T13:26:08;20.50;64.70
51815;DHT22;37874;53.158;6.766;2023-11-21T13:28:36;20.50;64.80
51815;DHT22;37874;53.158;6.766;2023-11-21T13:31:04;20.50;65.00
51815;DHT22;37874;53.158;6.766;2023-11-21T13:33:47;20.40;65.10
51815;DHT22;37874;53.158;6.766;2023-11-21T13:36:24;20.40;65.20
51815;DHT22;37874;53.158;6.766;2023-11-21T13:38:53;20.30;65.30
51815;DHT22;37874;53.158;6.766;2023-11-21T13:41:19;20.30;65.50
51815;DHT22;37874;53.158;6.766;2023-11-21T13:43:45;20.20;65.50
51815;DHT22;37874;53.158;6.766;2023-11-21T13:46:18;20.20;65.60
51815;DHT22;37874;53.158;6.766;2023-11-21T13:48:48;20.20;65.70
51815;DHT22;37874;53.158;6.766;2023-11-21T13:51:24;20.20;65.70
51815;DHT22;37874;53.158;6.766;2023-11-21T13:54:07;20.20;65.90
51815;DHT22;37874;53.158;6.766;2023-11-21T13:56:38;20.20;65.90
51815;DHT22;37874;53.158;6.766;2023-11-21T13:59:06;20.10;66.00
51815;DHT22;37874;53.158;6.766;2023-11-21T14:01:44;20.10;66.00
51815;DHT22;37874;53.158;6.766;2023-11-21T14:04:18;20.10;66.20
51815;DHT22;37874;53.158;6.766;2023-11-21T14:06:50;20.00;66.10
51815;DHT22;37874;53.158;6.766;2023-11-21T14:09:22;20.00;66.30
51815;DHT22;37874;53.158;6.766;2023-11-21T14:11:56;20.00;66.40
51815;DHT22;37874;53.158;6.766;2023-11-21T14:14:24;20.00;66.40
51815;DHT22;37874;53.158;6.766;2023-11-21T14:16:56;20.00;66.50
51815;DHT22;37874;53.158;6.766;2023-11-21T14:19:24;20.00;66.70
51815;DHT22;37874;53.158;6.766;2023-11-21T14:21:57;19.90;66.70
51815;DHT22;37874;53.158;6.766;2023-11-21T14:24:26;19.80;66.80
51815;DHT22;37874;53.158;6.766;2023-11-21T14:26:55;19.90;67.00
51815;DHT22;37874;53.158;6.766;2023-11-21T14:29:21;19.90;66.90
51815;DHT22;37874;53.158;6.766;2023-11-21T14:31:52;19.90;66.90
51815;DHT22;37874;53.158;6.766;2023-11-21T14:34:22;19.90;67.00
51815;DHT22;37874;53.158;6.766;2023-11-21T14:36:50;19.90;66.90
51815;DHT22;37874;53.158;6.766;2023-11-21T14:39:17;19.90;66.70
51815;DHT22;37874;53.158;6.766;2023-11-21T14:41:57;20.00;66.80
51815;DHT22;37874;53.158;6.766;2023-11-21T14:44:23;20.00;67.20
51815;DHT22;37874;53.158;6.766;2023-11-21T14:46:53;19.20;66.50
51815;DHT22;37874;53.158;6.766;2023-11-21T14:49:24;20.00;66.70
51815;DHT22;37874;53.158;6.766;2023-11-21T14:51:53;20.10;66.60
51815;DHT22;37874;53.158;6.766;2023-11-21T14:54:33;20.10;66.50
51815;DHT22;37874;53.158;6.766;2023-11-21T14:57:11;20.10;66.40
51815;DHT22;37874;53.158;6.766;2023-11-21T14:59:44;20.10;66.40
51815;DHT22;37874;53.158;6.766;2023-11-21T15:02:19;20.20;66.40
51815;DHT22;37874;53.158;6.766;2023-11-21T15:05:08;20.10;66.10
51815;DHT22;37874;53.158;6.766;2023-11-21T15:07:40;20.20;66.10
51815;DHT22;37874;53.158;6.766;2023-11-21T15:10:07;20.20;66.20
51815;DHT22;37874;53.158;6.766;2023-11-21T15:12:38;20.20;66.10
51815;DHT22;37874;53.158;6.766;2023-11-21T15:15:06;20.20;66.20
51815;DHT22;37874;53.158;6.766;2023-11-21T15:17:37;20.20;66.20
51815;DHT22;37874;53.158;6.766;2023-11-21T15:20:05;20.20;66.30
51815;DHT22;37874;53.158;6.766;2023-11-21T15:22:32;20.20;66.20
51815;DHT22;37874;53.158;6.766;2023-11-21T15:24:58;20.20;66.30
51815;DHT22;37874;53.158;6.766;2023-11-21T15:27:26;20.20;66.20
51815;DHT22;37874;53.158;6.766;2023-11-21T15:29:54;19.70;66.00
51815;DHT22;37874;53.158;6.766;2023-11-21T15:32:22;20.20;66.20
51815;DHT22;37874;53.158;6.766;2023-11-21T15:34:48;20.20;66.10
51815;DHT22;37874;53.158;6.766;2023-11-21T15:37:14;20.20;66.20
51815;DHT22;37874;53.158;6.766;2023-11-21T15:39:40;20.20;66.20
51815;DHT22;37874;53.158;6.766;2023-11-21T15:42:07;20.20;66.20
51815;DHT22;37874;53.158;6.766;2023-11-21T15:44:33;20.20;66.20
51815;DHT22;37874;53.158;6.766;2023-11-21T15:46:59;20.20;66.20
51815;DHT22;37874;53.158;6.766;2023-11-21T15:49:25;20.20;66.30
51815;DHT22;37874;53.158;6.766;2023-11-21T15:51:53;20.20;66.20
51815;DHT22;37874;53.158;6.766;2023-11-21T15:54:23;20.20;66.20
51815;DHT22;37874;53.158;6.766;2023-11-21T15:56:51;20.20;66.30
51815;DHT22;37874;53.158;6.766;2023-11-21T15:59:18;20.20;66.50
51815;DHT22;37874;53.158;6.766;2023-11-21T16:01:44;20.20;66.00
51815;DHT22;37874;53.158;6.766;2023-11-21T16:04:13;20.20;65.80
51815;DHT22;37874;53.158;6.766;2023-11-21T16:06:46;20.20;65.40
51815;DHT22;37874;53.158;6.766;2023-11-21T16:09:13;20.20;65.10
51815;DHT22;37874;53.158;6.766;2023-11-21T16:12:01;20.20;65.20
51815;DHT22;37874;53.158;6.766;2023-11-21T16:14:30;20.20;65.40
51815;DHT22;37874;53.158;6.766;2023-11-21T16:17:22;20.20;65.20
51815;DHT22;37874;53.158;6.766;2023-11-21T16:19:48;20.10;65.10
51815;DHT22;37874;53.158;6.766;2023-11-21T16:22:14;20.20;65.20